createdAt,value
2023-01-17T00:00:53.619Z,98966.77
2023-01-17T00:03:29.564Z,98976.95
2023-01-17T00:06:24.617Z,98956.73
2023-01-17T00:09:16.731Z,98957.56
2023-01-17T00:11:50.283Z,98972.48
2023-01-17T00:14:23.617Z,98989.20
2023-01-17T00:16:57.751Z,98979.98
2023-01-17T00:19:49.901Z,99011.09
2023-01-17T00:22:51.675Z,99008.14
2023-01-17T00:25:53.319Z,99001.10
2023-01-17T00:28:27.116Z,98992.55
2023-01-17T00:31:00.898Z,98992.90
2023-01-17T00:33:35.022Z,98988.98
2023-01-17T00:36:08.990Z,98989.42
2023-01-17T00:38:42.394Z,99002.30
2023-01-17T00:41:16.623Z,98997.33
2023-01-17T00:44:07.759Z,99007.65
2023-01-17T00:46:58.886Z,99019.35
2023-01-17T00:49:50.081Z,99020.34
2023-01-17T00:52:41.323Z,99012.83
2023-01-17T00:55:32.088Z,99019.27
2023-01-17T00:58:32.647Z,99024.88
2023-01-17T01:01:27.620Z,99009.71
2023-01-17T01:04:18.553Z,99004.67
2023-01-17T01:07:09.751Z,99006.34
2023-01-17T01:10:01.176Z,99025.08
2023-01-17T01:12:52.461Z,99012.25
2023-01-17T01:15:43.992Z,99014.98
2023-01-17T01:18:34.989Z,99018.02
2023-01-17T01:21:26.794Z,99017.95
2023-01-17T01:24:18.522Z,99010.54
2023-01-17T01:27:10.174Z,99001.26
2023-01-17T01:30:01.209Z,98989.48
2023-01-17T01:32:56.313Z,99001.13
2023-01-17T01:35:28.996Z,99010.55
2023-01-17T01:38:03.736Z,99020.59
2023-01-17T01:40:36.149Z,99019.95
2023-01-17T01:43:12.700Z,99008.47
2023-01-17T01:45:50.619Z,98995.57
2023-01-17T01:48:38.816Z,99007.45
2023-01-17T01:51:17.985Z,99014.84
2023-01-17T01:53:54.351Z,99008.08
2023-01-17T01:56:28.002Z,98998.44
2023-01-17T01:59:03.652Z,98997.85
2023-01-17T02:01:42.843Z,98986.00
2023-01-17T02:04:16.545Z,98971.05
2023-01-17T02:07:19.202Z,98971.80
2023-01-17T02:09:52.012Z,98977.09
2023-01-17T02:12:29.591Z,98966.09
2023-01-17T02:15:04.065Z,98957.55
2023-01-17T02:18:04.758Z,98965.71
2023-01-17T02:21:00.160Z,98961.26
2023-01-17T02:23:57.537Z,98958.96
2023-01-17T02:26:56.174Z,98973.27
2023-01-17T02:29:46.192Z,98972.62
2023-01-17T02:32:37.254Z,98973.84
2023-01-17T02:35:18.758Z,98967.48
2023-01-17T02:38:05.476Z,98955.48
2023-01-17T02:40:44.345Z,98943.69
2023-01-17T02:43:20.578Z,98945.12
2023-01-17T02:45:53.386Z,98934.24
2023-01-17T02:48:28.996Z,98942.06
2023-01-17T02:51:32.766Z,98936.65
2023-01-17T02:54:24.020Z,98939.84
2023-01-17T02:57:22.801Z,98934.58
2023-01-17T03:00:27.987Z,98936.35
2023-01-17T03:03:30.425Z,98934.46
2023-01-17T03:06:20.647Z,98935.91
2023-01-17T03:08:55.173Z,98934.25
2023-01-17T03:11:28.358Z,98938.52
2023-01-17T03:14:01.729Z,98931.42
2023-01-17T03:16:35.710Z,98921.86
2023-01-17T03:19:10.265Z,98918.83
2023-01-17T03:21:43.520Z,98918.74
2023-01-17T03:24:16.674Z,98920.02
2023-01-17T03:26:49.524Z,98912.08
2023-01-17T03:29:22.026Z,98907.20
2023-01-17T03:31:54.750Z,98907.85
2023-01-17T03:34:27.647Z,98894.55
2023-01-17T03:37:00.674Z,98905.36
2023-01-17T03:39:33.297Z,98907.08
2023-01-17T03:42:05.855Z,98902.46
2023-01-17T03:44:38.461Z,98898.72
2023-01-17T03:47:14.034Z,98892.72
2023-01-17T03:49:46.828Z,98898.20
2023-01-17T03:52:19.988Z,98905.83
2023-01-17T03:54:52.428Z,98907.27
2023-01-17T03:57:25.030Z,98901.39
2023-01-17T03:59:57.853Z,98889.13
2023-01-17T04:02:30.727Z,98899.55
2023-01-17T04:05:03.976Z,98874.96
2023-01-17T04:07:36.567Z,98888.58
2023-01-17T04:10:09.711Z,98893.56
2023-01-17T04:12:42.512Z,98893.30
2023-01-17T04:15:15.490Z,98895.08
2023-01-17T04:17:48.329Z,98896.94
2023-01-17T04:20:36.080Z,98899.27
2023-01-17T04:23:09.252Z,98912.14
2023-01-17T04:25:42.152Z,98913.13
2023-01-17T04:28:15.028Z,98905.27
2023-01-17T04:30:47.768Z,98899.84
2023-01-17T04:33:20.523Z,98897.54
2023-01-17T04:35:54.733Z,98908.77
2023-01-17T04:38:28.017Z,98901.36
2023-01-17T04:41:01.192Z,98896.41
2023-01-17T04:43:35.377Z,98906.15
2023-01-17T04:46:10.609Z,98920.02
2023-01-17T04:48:43.770Z,98915.89
2023-01-17T04:51:17.077Z,98915.91
2023-01-17T04:53:50.402Z,98909.76
2023-01-17T04:56:23.358Z,98902.84
2023-01-17T04:58:58.741Z,98907.02
2023-01-17T05:01:31.813Z,98916.66
2023-01-17T05:04:04.518Z,98916.20
2023-01-17T05:06:37.304Z,98906.99
2023-01-17T05:09:10.106Z,98893.44
2023-01-17T05:11:43.192Z,98918.14
2023-01-17T05:14:15.999Z,98914.27
2023-01-17T05:16:48.735Z,98924.59
2023-01-17T05:19:21.694Z,98924.95
2023-01-17T05:21:54.836Z,98924.75
2023-01-17T05:24:27.891Z,98922.78
2023-01-17T05:27:03.510Z,98920.99
2023-01-17T05:29:37.428Z,98904.94
2023-01-17T05:32:11.859Z,98909.20
2023-01-17T05:34:44.880Z,98921.50
2023-01-17T05:37:17.783Z,98922.60
2023-01-17T05:39:50.973Z,98908.31
2023-01-17T05:42:24.062Z,98904.02
2023-01-17T05:44:57.035Z,98904.22
2023-01-17T05:47:30.581Z,98906.00
2023-01-17T05:50:04.076Z,98895.83
2023-01-17T05:52:37.560Z,98891.59
2023-01-17T05:55:10.963Z,98890.38
2023-01-17T05:57:44.832Z,98881.07
2023-01-17T06:00:18.984Z,98887.00
2023-01-17T06:02:55.020Z,98873.55
2023-01-17T06:05:29.511Z,98872.73
2023-01-17T06:08:03.524Z,98877.81
2023-01-17T06:10:37.456Z,98880.98
2023-01-17T06:13:23.912Z,98869.32
2023-01-17T06:16:05.125Z,98878.13
2023-01-17T06:18:38.288Z,98861.37
2023-01-17T06:21:12.577Z,98879.06
2023-01-17T06:23:45.737Z,98882.64
2023-01-17T06:26:18.791Z,98886.84
2023-01-17T06:28:52.600Z,98884.22
2023-01-17T06:31:26.584Z,98885.59
2023-01-17T06:34:03.951Z,98884.27
2023-01-17T06:36:37.608Z,98879.36
2023-01-17T06:39:14.857Z,98878.30
2023-01-17T06:41:49.526Z,98888.63
2023-01-17T06:44:22.603Z,98890.98
2023-01-17T06:46:56.564Z,98892.52
2023-01-17T06:49:30.788Z,98899.39
2023-01-17T06:52:04.631Z,98899.13
2023-01-17T06:54:37.539Z,98885.68
2023-01-17T06:57:10.732Z,98892.60
2023-01-17T06:59:44.541Z,98888.80
2023-01-17T07:02:17.793Z,98882.31
2023-01-17T07:04:50.870Z,98890.60
2023-01-17T07:07:25.713Z,98881.48
2023-01-17T07:09:59.728Z,98886.07
2023-01-17T07:12:33.734Z,98876.14
2023-01-17T07:15:07.177Z,98882.98
2023-01-17T07:17:40.641Z,98883.48
2023-01-17T07:20:14.272Z,98885.98
2023-01-17T07:22:50.036Z,98885.15
2023-01-17T07:25:23.354Z,98885.34
2023-01-17T07:27:59.268Z,98880.46
2023-01-17T07:30:32.284Z,98885.34
2023-01-17T07:33:05.943Z,98882.01
2023-01-17T07:35:39.874Z,98868.75
2023-01-17T07:38:18.275Z,98868.98
2023-01-17T07:40:52.965Z,98869.85
2023-01-17T07:43:26.796Z,98865.35
2023-01-17T07:46:02.130Z,98870.56
2023-01-17T07:48:36.298Z,98881.02
2023-01-17T07:51:10.355Z,98886.95
2023-01-17T07:53:44.044Z,98883.34
2023-01-17T07:56:17.438Z,98878.81
2023-01-17T07:58:50.599Z,98867.87
2023-01-17T08:01:24.802Z,98859.33
2023-01-17T08:03:58.963Z,98857.20
2023-01-17T08:06:32.438Z,98862.66
2023-01-17T08:09:06.353Z,98856.35
2023-01-17T08:11:39.435Z,98854.13
2023-01-17T08:14:12.690Z,98858.94
2023-01-17T08:16:46.321Z,98859.64
2023-01-17T08:19:22.098Z,98857.43
2023-01-17T08:21:56.218Z,98857.94
2023-01-17T08:24:31.355Z,98852.45
2023-01-17T08:27:05.350Z,98848.61
2023-01-17T08:29:42.410Z,98857.52
2023-01-17T08:32:16.693Z,98857.46
2023-01-17T08:34:50.186Z,98865.29
2023-01-17T08:37:26.090Z,98857.31
2023-01-17T08:39:59.787Z,98856.67
2023-01-17T08:42:39.949Z,98849.69
2023-01-17T08:45:15.468Z,98847.46
2023-01-17T08:47:48.761Z,98838.73
2023-01-17T08:50:22.134Z,98824.84
2023-01-17T08:53:01.748Z,98811.55
2023-01-17T08:55:39.614Z,98814.14
2023-01-17T08:58:14.564Z,98805.55
2023-01-17T09:00:48.142Z,98814.63
2023-01-17T09:03:22.011Z,98822.26
2023-01-17T09:06:06.627Z,98826.84
2023-01-17T09:08:40.598Z,98825.02
2023-01-17T09:11:16.420Z,98825.54
2023-01-17T09:13:50.573Z,98823.96
2023-01-17T09:16:24.191Z,98823.63
2023-01-17T09:18:59.130Z,98816.98
2023-01-17T09:21:32.472Z,98817.25
2023-01-17T09:24:05.803Z,98811.58
2023-01-17T09:26:39.510Z,98818.73
2023-01-17T09:29:14.643Z,98824.43
2023-01-17T09:31:48.963Z,98818.63
2023-01-17T09:34:25.095Z,98820.61
2023-01-17T09:37:00.049Z,98800.89
2023-01-17T09:39:33.876Z,98801.37
2023-01-17T09:42:33.210Z,98793.04
2023-01-17T09:45:07.718Z,98780.69
2023-01-17T09:47:52.479Z,98782.13
2023-01-17T09:50:40.326Z,98792.81
2023-01-17T09:53:24.763Z,98782.98
2023-01-17T09:55:57.490Z,98792.33
2023-01-17T09:58:45.876Z,98806.69
2023-01-17T10:01:52.681Z,98798.25
2023-01-17T10:04:44.180Z,98816.29
2023-01-17T10:07:23.695Z,98808.29
2023-01-17T10:10:21.585Z,98783.97
2023-01-17T10:13:24.125Z,98792.86
2023-01-17T10:16:04.809Z,98793.02
2023-01-17T10:19:10.554Z,98798.27
2023-01-17T10:22:02.689Z,98795.98
2023-01-17T10:24:53.414Z,98796.71
2023-01-17T10:27:33.456Z,98797.54
2023-01-17T10:30:32.556Z,98803.48
2023-01-17T10:33:29.675Z,98796.55
2023-01-17T10:36:10.683Z,98784.50
2023-01-17T10:38:47.917Z,98782.83
2023-01-17T10:41:39.197Z,98774.48
2023-01-17T10:44:23.840Z,98758.66
2023-01-17T10:47:28.992Z,98743.15
2023-01-17T10:50:05.709Z,98731.83
2023-01-17T10:53:05.655Z,98727.16
2023-01-17T10:55:55.726Z,98733.48
2023-01-17T10:58:29.139Z,98735.45
2023-01-17T11:01:04.733Z,98728.31
2023-01-17T11:03:38.323Z,98721.29
2023-01-17T11:06:23.621Z,98729.75
2023-01-17T11:09:04.432Z,98734.23
2023-01-17T11:11:49.706Z,98722.06
2023-01-17T11:14:30.120Z,98724.39
2023-01-17T11:17:05.477Z,98723.77
2023-01-17T11:19:40.037Z,98720.27
2023-01-17T11:22:18.139Z,98727.02
2023-01-17T11:24:57.108Z,98734.71
2023-01-17T11:27:42.589Z,98733.12
2023-01-17T11:30:21.048Z,98733.75
2023-01-17T11:32:55.942Z,98729.54
2023-01-17T11:35:46.723Z,98726.55
2023-01-17T11:38:24.489Z,98729.09
2023-01-17T11:41:18.567Z,98726.48
2023-01-17T11:44:01.807Z,98726.80
2023-01-17T11:46:35.311Z,98727.63
2023-01-17T11:49:25.495Z,98733.80
2023-01-17T11:51:59.274Z,98725.61
2023-01-17T11:54:46.842Z,98719.14
2023-01-17T11:57:35.701Z,98735.70
2023-01-17T12:00:26.235Z,98732.39
2023-01-17T12:03:42.699Z,98730.98
2023-01-17T12:06:44.775Z,98744.48
2023-01-17T12:09:38.827Z,98752.38
2023-01-17T12:12:44.641Z,98753.36
2023-01-17T12:15:39.315Z,98753.76
2023-01-17T12:18:25.639Z,98757.08
2023-01-17T12:21:24.999Z,98746.34
2023-01-17T12:24:21.526Z,98762.33
2023-01-17T12:27:09.550Z,98757.03
2023-01-17T12:30:06.176Z,98774.24
2023-01-17T12:33:04.322Z,98773.67
2023-01-17T12:35:51.324Z,98771.96
2023-01-17T12:38:40.657Z,98768.71
2023-01-17T12:41:33.205Z,98749.11
2023-01-17T12:44:07.661Z,98762.06
2023-01-17T12:46:46.194Z,98776.96
2023-01-17T12:49:41.983Z,98781.11
2023-01-17T12:52:21.129Z,98770.08
2023-01-17T12:55:14.218Z,98780.93
2023-01-17T12:57:59.322Z,98795.16
2023-01-17T13:00:35.413Z,98797.70
2023-01-17T13:03:44.739Z,98789.82
2023-01-17T13:06:46.387Z,98793.66
2023-01-17T13:09:23.906Z,98771.88
2023-01-17T13:12:20.743Z,98779.66
2023-01-17T13:15:02.913Z,98771.39
2023-01-17T13:17:49.047Z,98746.34
2023-01-17T13:20:49.587Z,98739.03
2023-01-17T13:23:36.684Z,98749.40
2023-01-17T13:26:23.069Z,98763.14
2023-01-17T13:29:19.872Z,98753.73
2023-01-17T13:32:22.588Z,98761.15
2023-01-17T13:35:21.094Z,98760.27
2023-01-17T13:38:24.202Z,98759.77
2023-01-17T13:41:12.698Z,98768.20
2023-01-17T13:44:09.228Z,98774.31
2023-01-17T13:46:59.331Z,98788.98
2023-01-17T13:49:37.704Z,98793.06
2023-01-17T13:52:24.278Z,98791.27
2023-01-17T13:55:01.976Z,98786.69
2023-01-17T13:57:48.291Z,98794.16
2023-01-17T14:00:29.494Z,98799.98
2023-01-17T14:03:02.460Z,98792.02
2023-01-17T14:05:41.827Z,98782.98
2023-01-17T14:08:22.517Z,98802.07
2023-01-17T14:11:13.016Z,98802.02
2023-01-17T14:13:46.781Z,98801.66
2023-01-17T14:16:25.592Z,98805.83
2023-01-17T14:18:59.356Z,98810.33
2023-01-17T14:21:36.577Z,98811.48
2023-01-17T14:24:20.547Z,98807.83
2023-01-17T14:27:24.160Z,98801.79
2023-01-17T14:30:04.704Z,98789.14
2023-01-17T14:32:41.060Z,98793.39
2023-01-17T14:35:25.117Z,98802.25
2023-01-17T14:38:06.351Z,98812.83
2023-01-17T14:40:42.073Z,98816.78
2023-01-17T14:43:20.768Z,98814.27
2023-01-17T14:46:03.644Z,98817.02
2023-01-17T14:48:42.036Z,98823.36
2023-01-17T14:51:21.036Z,98806.16
2023-01-17T14:54:02.984Z,98791.45
2023-01-17T14:56:36.192Z,98800.08
2023-01-17T14:59:17.599Z,98806.65
2023-01-17T15:02:08.023Z,98811.87
2023-01-17T15:04:44.314Z,98830.27
2023-01-17T15:07:21.045Z,98829.14
2023-01-17T15:09:54.718Z,98838.80
2023-01-17T15:12:28.184Z,98837.57
2023-01-17T15:15:02.815Z,98837.30
2023-01-17T15:17:36.005Z,98854.73
2023-01-17T15:20:18.167Z,98861.41
2023-01-17T15:22:51.886Z,98847.77
2023-01-17T15:25:25.798Z,98873.88
2023-01-17T15:27:59.468Z,98885.77
2023-01-17T15:30:32.935Z,98889.73
2023-01-17T15:33:06.292Z,98898.11
2023-01-17T15:35:39.117Z,98901.39
2023-01-17T15:38:17.411Z,98911.58
2023-01-17T15:40:50.480Z,98909.08
2023-01-17T15:43:36.202Z,98911.83
2023-01-17T15:46:09.105Z,98926.94
2023-01-17T15:48:46.426Z,98919.09
2023-01-17T15:51:38.879Z,98916.30
2023-01-17T15:54:53.425Z,98908.42
2023-01-17T15:57:40.790Z,98918.71
2023-01-17T16:00:15.456Z,98921.83
2023-01-17T16:02:55.919Z,98915.52
2023-01-17T16:05:31.302Z,98924.84
2023-01-17T16:08:07.607Z,98928.77
2023-01-17T16:10:41.671Z,98921.59
2023-01-17T16:13:15.865Z,98938.20
2023-01-17T16:15:49.356Z,98943.55
2023-01-17T16:18:26.213Z,98939.05
2023-01-17T16:21:15.196Z,98936.33
2023-01-17T16:23:49.025Z,98936.70
2023-01-17T16:26:22.309Z,98927.36
2023-01-17T16:28:55.658Z,98937.91
2023-01-17T16:31:28.995Z,98957.60
2023-01-17T16:34:02.561Z,98963.58
2023-01-17T16:36:37.381Z,98970.00
2023-01-17T16:39:13.806Z,98977.47
2023-01-17T16:41:46.937Z,98974.38
2023-01-17T16:44:20.447Z,98969.63
2023-01-17T16:46:53.366Z,98975.61
2023-01-17T16:49:26.359Z,99001.27
2023-01-17T16:51:59.785Z,99004.15
2023-01-17T16:54:32.411Z,98998.39
2023-01-17T16:57:05.585Z,98981.16
2023-01-17T16:59:50.138Z,98981.19
2023-01-17T17:02:25.554Z,98994.06
2023-01-17T17:04:58.800Z,98995.39
2023-01-17T17:07:31.702Z,98999.20
2023-01-17T17:10:06.011Z,99009.65
2023-01-17T17:12:39.055Z,99020.30
2023-01-17T17:15:13.567Z,99018.36
2023-01-17T17:17:48.293Z,99017.20
2023-01-17T17:20:21.141Z,99009.58
2023-01-17T17:22:54.350Z,98998.06
2023-01-17T17:25:28.103Z,98977.39
2023-01-17T17:28:01.456Z,98990.19
2023-01-17T17:30:36.660Z,98992.63
2023-01-17T17:33:11.674Z,98971.63
2023-01-17T17:35:44.890Z,98958.30
2023-01-17T17:38:17.781Z,98961.33
2023-01-17T17:40:51.043Z,98979.38
2023-01-17T17:43:26.402Z,98982.54
2023-01-17T17:45:59.769Z,99001.04
2023-01-17T17:48:32.586Z,99004.30
2023-01-17T17:51:06.084Z,98995.74
2023-01-17T17:53:38.966Z,98987.71
2023-01-17T17:56:11.850Z,98987.28
2023-01-17T17:58:46.167Z,98993.61
2023-01-17T18:01:19.365Z,98995.18
2023-01-17T18:03:53.253Z,98995.73
2023-01-17T18:06:26.647Z,98983.99
2023-01-17T18:09:00.134Z,98966.63
2023-01-17T18:11:34.011Z,98981.89
2023-01-17T18:14:10.015Z,98994.48
2023-01-17T18:16:45.214Z,98995.48
2023-01-17T18:19:23.270Z,98994.15
2023-01-17T18:21:57.114Z,98986.94
2023-01-17T18:24:30.059Z,99004.69
2023-01-17T18:27:03.033Z,98993.05
2023-01-17T18:29:36.189Z,98989.48
2023-01-17T18:32:09.463Z,98990.52
2023-01-17T18:34:42.952Z,98993.39
2023-01-17T18:37:16.455Z,98994.94
2023-01-17T18:39:49.718Z,98995.48
2023-01-17T18:42:23.443Z,98995.55
2023-01-17T18:44:56.300Z,98996.54
2023-01-17T18:47:30.650Z,98994.84
2023-01-17T18:50:03.484Z,98996.66
2023-01-17T18:52:37.781Z,98992.80
2023-01-17T18:55:10.871Z,98979.78
2023-01-17T18:57:45.161Z,98985.86
2023-01-17T19:00:19.982Z,98997.25
2023-01-17T19:02:52.922Z,98980.97
2023-01-17T19:05:25.921Z,98984.89
2023-01-17T19:07:59.211Z,98991.71
2023-01-17T19:10:32.332Z,98998.92
2023-01-17T19:13:05.476Z,99002.55
2023-01-17T19:15:38.585Z,98995.55
2023-01-17T19:18:12.043Z,99000.88
2023-01-17T19:20:45.305Z,98993.77
2023-01-17T19:23:18.506Z,98995.16
2023-01-17T19:25:58.990Z,98992.20
2023-01-17T19:28:34.119Z,98978.89
2023-01-17T19:31:13.804Z,98999.63
2023-01-17T19:33:48.742Z,99000.71
2023-01-17T19:36:26.661Z,98995.02
2023-01-17T19:39:05.852Z,99005.70
2023-01-17T19:41:45.276Z,98993.33
2023-01-17T19:44:18.675Z,98986.13
2023-01-17T19:46:51.580Z,98989.36
2023-01-17T19:49:25.229Z,98993.11
2023-01-17T19:51:58.264Z,98998.95
2023-01-17T19:54:31.594Z,99007.16
2023-01-17T19:57:05.157Z,98997.95
2023-01-17T19:59:38.351Z,99003.59
2023-01-17T20:02:12.723Z,99002.19
2023-01-17T20:04:46.531Z,99003.27
2023-01-17T20:07:19.330Z,99009.55
2023-01-17T20:09:52.306Z,98998.15
2023-01-17T20:12:25.290Z,99001.52
2023-01-17T20:14:58.567Z,99000.31
2023-01-17T20:17:34.497Z,99010.79
2023-01-17T20:20:11.751Z,99000.66
2023-01-17T20:22:46.069Z,98995.73
2023-01-17T20:25:18.941Z,98999.68
2023-01-17T20:27:51.706Z,98997.64
2023-01-17T20:30:32.683Z,98981.50
2023-01-17T20:33:05.508Z,98988.65
2023-01-17T20:35:38.358Z,98998.69
2023-01-17T20:38:12.383Z,98992.52
2023-01-17T20:40:45.600Z,98990.73
2023-01-17T20:43:19.386Z,98991.38
2023-01-17T20:45:59.059Z,99003.27
2023-01-17T20:48:32.219Z,98999.39
2023-01-17T20:51:10.923Z,98989.98
2023-01-17T20:53:45.289Z,98999.42
2023-01-17T20:56:19.335Z,98996.98
2023-01-17T20:58:55.020Z,98991.37
2023-01-17T21:01:28.432Z,98992.70
2023-01-17T21:04:01.749Z,98995.27
2023-01-17T21:06:34.889Z,98991.73
2023-01-17T21:09:09.105Z,98983.98
2023-01-17T21:11:42.344Z,98967.83
2023-01-17T21:14:16.279Z,98956.06
2023-01-17T21:16:50.703Z,98962.86
2023-01-17T21:19:24.268Z,98977.27
2023-01-17T21:21:57.832Z,98969.16
2023-01-17T21:24:31.033Z,98964.51
2023-01-17T21:27:03.998Z,98942.88
2023-01-17T21:29:37.143Z,98948.31
2023-01-17T21:32:10.668Z,98934.36
2023-01-17T21:34:44.724Z,98938.15
2023-01-17T21:37:17.695Z,98947.14
2023-01-17T21:39:55.369Z,98934.48
2023-01-17T21:42:28.615Z,98938.59
2023-01-17T21:45:01.915Z,98934.52
2023-01-17T21:47:35.025Z,98929.46
2023-01-17T21:50:09.943Z,98924.08
2023-01-17T21:52:42.921Z,98920.53
2023-01-17T21:55:34.371Z,98926.15
2023-01-17T21:58:33.046Z,98928.48
2023-01-17T22:01:26.078Z,98922.23
2023-01-17T22:04:00.731Z,98929.49
2023-01-17T22:06:36.215Z,98926.00
2023-01-17T22:09:10.021Z,98915.73
2023-01-17T22:11:42.818Z,98912.96
2023-01-17T22:14:15.729Z,98912.80
2023-01-17T22:16:50.076Z,98894.02
2023-01-17T22:19:23.366Z,98889.86
2023-01-17T22:21:57.449Z,98887.20
2023-01-17T22:24:30.567Z,98879.84
2023-01-17T22:27:03.550Z,98873.27
2023-01-17T22:29:36.911Z,98866.36
2023-01-17T22:32:10.207Z,98855.73
2023-01-17T22:34:42.775Z,98859.11
2023-01-17T22:37:15.912Z,98856.18
2023-01-17T22:39:49.368Z,98868.78
2023-01-17T22:42:22.481Z,98870.20
2023-01-17T22:44:55.267Z,98864.18
2023-01-17T22:47:28.117Z,98864.32
2023-01-17T22:50:01.010Z,98857.02
2023-01-17T22:52:34.342Z,98851.36
2023-01-17T22:55:07.582Z,98863.38
2023-01-17T22:57:40.470Z,98860.41
2023-01-17T23:00:14.924Z,98862.80
2023-01-17T23:02:47.660Z,98860.11
2023-01-17T23:05:20.905Z,98846.16
2023-01-17T23:07:53.997Z,98836.42
2023-01-17T23:10:45.445Z,98832.04
2023-01-17T23:13:18.281Z,98833.23
2023-01-17T23:16:10.041Z,98829.80
2023-01-17T23:19:01.533Z,98826.87
2023-01-17T23:21:55.017Z,98827.19
2023-01-17T23:24:28.309Z,98828.02
2023-01-17T23:27:20.460Z,98828.60
2023-01-17T23:29:53.094Z,98829.42
2023-01-17T23:32:26.060Z,98840.39
2023-01-17T23:34:58.807Z,98844.60
2023-01-17T23:37:51.324Z,98855.54
2023-01-17T23:40:24.224Z,98850.23
2023-01-17T23:43:15.748Z,98856.86
2023-01-17T23:45:48.745Z,98862.02
2023-01-17T23:48:24.235Z,98866.52
2023-01-17T23:51:11.130Z,98872.38
2023-01-17T23:53:43.944Z,98872.64
2023-01-17T23:56:25.702Z,98871.24
2023-01-17T23:58:59.201Z,98863.29
